Time;durP1;ratioP1;P1;durP2;ratioP2;P2;SDS_P1;SDS_P2;PMS_P1;PMS_P2;Temp;Humidity;BMP_temperature;BMP_pressure;BME280_temperature;BME280_humidity;BME280_pressure;Samples;Min_cycle;Max_cycle;Signal;HPM_P1;HPM_P2
2022/08/07 00:00:10;;;;;;;14.23;9.88;;;10.00;99.90;;;;;;5053838;28;20048;-27
2022/08/07 00:02:36;;;;;;;24.60;12.18;;;10.00;99.90;;;;;;5053761;28;20049;-27
2022/08/07 00:05:03;;;;;;;15.70;11.50;;;10.00;99.90;;;;;;5052356;28;20131;-27
2022/08/07 00:07:28;;;;;;;14.88;10.95;;;10.10;99.90;;;;;;5054070;28;20049;-27
2022/08/07 00:09:54;;;;;;;15.82;11.05;;;10.10;99.90;;;;;;5053626;28;20056;-27
2022/08/07 00:12:20;;;;;;;15.88;11.05;;;10.10;99.90;;;;;;5053617;28;20056;-28
2022/08/07 00:14:45;;;;;;;18.88;12.02;;;10.20;99.90;;;;;;5054299;28;20096;-27
2022/08/07 00:17:11;;;;;;;15.75;10.73;;;10.20;99.90;;;;;;5052781;28;20479;-27
2022/08/07 00:19:37;;;;;;;15.50;11.40;;;10.10;99.90;;;;;;5053570;28;20041;-27
2022/08/07 00:22:03;;;;;;;15.55;11.35;;;10.10;99.90;;;;;;5053545;28;20462;-27
2022/08/07 00:24:29;;;;;;;7.93;6.05;;;10.10;99.90;;;;;;5053486;28;20045;-27
2022/08/07 00:26:55;;;;;;;12.55;9.00;;;10.00;99.90;;;;;;5051679;28;20097;-27
2022/08/07 00:29:24;;;;;;;7.70;5.07;;;9.90;99.90;;;;;;5053491;28;20045;-27
2022/08/07 00:31:53;;;;;;;10.55;6.57;;;9.70;99.90;;;;;;5053292;28;20053;-28
2022/08/07 00:34:18;;;;;;;11.60;7.70;;;9.60;93.40;;;;;;5052245;28;20044;-27
2022/08/07 00:36:44;;;;;;;12.13;8.45;;;9.50;93.40;;;;;;5052750;28;20041;-27
2022/08/07 00:39:11;;;;;;;17.63;9.98;;;9.60;99.90;;;;;;5053694;28;20049;-27
2022/08/07 00:41:38;;;;;;;13.40;9.77;;;9.50;99.90;;;;;;5053925;28;20115;-27
2022/08/07 00:44:04;;;;;;;12.70;8.68;;;9.60;99.90;;;;;;5053597;28;20423;-28
2022/08/07 00:46:31;;;;;;;10.02;7.55;;;9.60;99.90;;;;;;5053356;28;20053;-27
2022/08/07 00:49:00;;;;;;;8.25;6.13;;;9.50;99.90;;;;;;5052145;28;20475;-27
2022/08/07 00:51:28;;;;;;;10.70;7.45;;;9.50;99.90;;;;;;5053399;28;20041;-27
2022/08/07 00:53:53;;;;;;;16.35;9.68;;;9.40;99.90;;;;;;5057240;28;20128;-27
2022/08/07 00:56:20;;;;;;;7.93;6.15;;;9.40;99.90;;;;;;5057204;28;20131;-27
2022/08/07 00:58:46;;;;;;;5.45;4.28;;;9.30;99.90;;;;;;5056417;28;20052;-27
2022/08/07 01:01:12;;;;;;;6.40;4.93;;;9.30;99.90;;;;;;5056160;28;20128;-28
2022/08/07 01:03:38;;;;;;;5.65;2.53;;;9.10;99.90;;;;;;5056143;28;20128;-27
2022/08/07 01:06:04;;;;;;;10.55;7.30;;;9.10;99.90;;;;;;5039485;28;20056;-27
2022/08/07 01:08:30;;;;;;;8.88;5.38;;;9.10;99.90;;;;;;5055225;28;20068;-28
2022/08/07 01:10:56;;;;;;;2.05;1.83;;;9.00;99.90;;;;;;5056893;28;20383;-27
2022/08/07 01:13:22;;;;;;;2.10;1.42;;;8.90;99.90;;;;;;5056867;28;20056;-29
2022/08/07 01:15:49;;;;;;;2.80;2.20;;;8.80;99.90;;;;;;5056839;28;20060;-28
2022/08/07 01:18:15;;;;;;;5.32;3.65;;;8.70;99.90;;;;;;5056649;28;20041;-28
2022/08/07 01:20:45;;;;;;;2.88;2.25;;;8.70;99.90;;;;;;5055424;28;20372;-28
2022/08/07 01:23:12;;;;;;;5.38;3.88;;;8.80;99.90;;;;;;5056678;28;20056;-27
2022/08/07 01:25:39;;;;;;;7.50;5.30;;;8.70;99.90;;;;;;5056600;28;20136;-27
2022/08/07 01:28:05;;;;;;;8.02;4.97;;;8.60;99.90;;;;;;5055451;28;20045;-27
2022/08/07 01:30:31;;;;;;;9.63;6.15;;;8.60;99.90;;;;;;5055265;28;20044;-27
2022/08/07 01:32:58;;;;;;;11.57;7.63;;;8.70;99.90;;;;;;5054625;28;20044;-27
2022/08/07 01:35:24;;;;;;;14.38;9.80;;;8.80;99.90;;;;;;5022422;28;20091;-27
2022/08/07 01:37:51;;;;;;;15.48;9.48;;;8.80;99.90;;;;;;5055268;28;20048;-27
2022/08/07 01:40:20;;;;;;;13.85;9.48;;;8.90;99.90;;;;;;5055882;28;20060;-27
2022/08/07 01:42:46;;;;;;;14.38;9.85;;;8.90;99.90;;;;;;5055997;28;20376;-28
2022/08/07 01:45:12;;;;;;;14.40;9.75;;;9.10;99.90;;;;;;5056596;28;20471;-28
2022/08/07 01:47:38;;;;;;;15.85;10.85;;;9.10;99.90;;;;;;5056527;28;20088;-27
2022/08/07 01:50:05;;;;;;;17.55;10.55;;;9.10;99.90;;;;;;5055130;28;20458;-27
2022/08/07 01:52:33;;;;;;;20.23;12.85;;;9.10;99.90;;;;;;5056979;28;20045;-27
2022/08/07 01:55:00;;;;;;;18.27;11.07;;;9.10;99.90;;;;;;5055432;28;20045;-27
2022/08/07 01:57:33;;;;;;;18.52;12.38;;;9.10;99.90;;;;;;5056069;28;20045;-27
2022/08/07 02:00:06;;;;;;;15.75;11.70;;;9.10;99.90;;;;;;5052316;28;20048;-27
2022/08/07 02:02:42;;;;;;;16.83;11.48;;;9.10;99.90;;;;;;5055351;28;20471;-27
2022/08/07 02:05:11;;;;;;;17.00;10.65;;;9.20;1.00;;;;;;5054182;28;20498;-28
2022/08/07 02:07:42;;;;;;;18.58;12.20;;;9.10;1.00;;;;;;5055865;28;20102;-27
2022/08/07 02:10:10;;;;;;;17.55;11.30;;;9.20;1.00;;;;;;5055006;28;20052;-27
2022/08/07 02:12:39;;;;;;;12.77;9.52;;;9.20;1.00;;;;;;5054478;28;20430;-27
2022/08/07 02:15:06;;;;;;;12.05;8.88;;;9.20;1.00;;;;;;5055707;28;20061;-27
2022/08/07 02:17:33;;;;;;;17.27;9.68;;;9.20;1.00;;;;;;5055651;28;20045;-27
2022/08/07 02:20:01;;;;;;;14.68;10.20;;;9.20;1.00;;;;;;5054567;28;20128;-27
2022/08/07 02:22:29;;;;;;;15.48;10.75;;;9.20;1.00;;;;;;5054647;28;20049;-27
2022/08/07 02:24:57;;;;;;;14.82;10.60;;;9.20;1.00;;;;;;5055502;28;20065;-27
2022/08/07 02:27:25;;;;;;;18.38;11.23;;;9.20;1.00;;;;;;5054382;28;20045;-27
2022/08/07 02:29:52;;;;;;;19.33;11.90;;;9.20;1.00;;;;;;5055512;28;20067;-27
2022/08/07 02:32:18;;;;;;;18.10;12.35;;;9.10;1.00;;;;;;5052565;28;20037;-27
2022/08/07 02:34:47;;;;;;;16.95;10.52;;;9.10;1.00;;;;;;5055342;28;20131;-27
2022/08/07 02:37:14;;;;;;;15.32;10.95;;;9.10;1.00;;;;;;5055324;28;20045;-27
2022/08/07 02:39:43;;;;;;;14.55;10.75;;;9.10;1.00;;;;;;5055283;28;20502;-27
2022/08/07 02:42:10;;;;;;;20.30;11.38;;;9.10;1.00;;;;;;5053222;28;20087;-27
2022/08/07 02:44:38;;;;;;;15.50;10.75;;;9.10;1.00;;;;;;5055194;28;20128;-28
2022/08/07 02:47:05;;;;;;;17.95;11.65;;;9.10;1.00;;;;;;5055101;28;20045;-27
2022/08/07 02:49:31;;;;;;;17.52;11.90;;;9.10;1.00;;;;;;5053867;28;20132;-27
2022/08/07 02:52:00;;;;;;;17.70;10.77;;;9.10;1.00;;;;;;5054064;28;20135;-28
2022/08/07 02:54:29;;;;;;;14.63;10.00;;;9.10;1.00;;;;;;5055004;28;20120;-29
2022/08/07 02:56:59;;;;;;;18.73;11.68;;;9.10;1.00;;;;;;5055452;28;20084;-28
2022/08/07 02:59:26;;;;;;;17.27;11.02;;;9.10;1.00;;;;;;5055136;28;20045;-27
2022/08/07 03:01:53;;;;;;;20.48;12.50;;;9.20;1.00;;;;;;5054841;28;20041;-26
2022/08/07 03:04:21;;;;;;;21.90;13.25;;;9.20;51.00;;;;;;5053803;28;20072;-27
2022/08/07 03:06:48;;;;;;;22.55;12.65;;;9.10;76.60;;;;;;5054433;28;20576;-27
2022/08/07 03:09:14;;;;;;;17.02;11.82;;;9.00;66.50;;;;;;5054690;28;20048;-27
2022/08/07 03:11:41;;;;;;;18.45;11.27;;;9.10;59.20;;;;;;5054571;28;20037;-27
2022/08/07 03:14:07;;;;;;;17.52;11.50;;;9.10;27.40;;;;;;5053187;28;20443;-27
2022/08/07 03:16:34;;;;;;;15.68;10.82;;;9.00;8.60;;;;;;5055448;28;20056;-27
2022/08/07 03:19:01;;;;;;;14.63;10.90;;;8.90;22.30;;;;;;5055339;28;20084;-27
2022/08/07 03:21:27;;;;;;;16.25;10.98;;;8.90;22.90;;;;;;5054356;28;20064;-27
2022/08/07 03:23:55;;;;;;;18.13;11.55;;;8.80;1.00;;;;;;5053330;28;20057;-27
2022/08/07 03:26:24;;;;;;;16.50;11.10;;;8.80;1.00;;;;;;5054691;28;20045;-28
2022/08/07 03:28:52;;;;;;;18.15;11.77;;;8.80;1.00;;;;;;5052696;28;20053;-27
2022/08/07 03:31:20;;;;;;;19.23;11.80;;;8.90;14.60;;;;;;5054519;28;20091;-27
2022/08/07 03:33:49;;;;;;;19.42;12.45;;;8.90;38.60;;;;;;5054127;28;20084;-27
2022/08/07 03:36:17;;;;;;;18.98;12.38;;;8.90;49.60;;;;;;5053587;28;20123;-27
2022/08/07 03:38:46;;;;;;;21.25;12.88;;;8.90;31.40;;;;;;5053999;28;20434;-27
2022/08/07 03:41:13;;;;;;;22.63;13.48;;;8.90;37.40;;;;;;5054682;28;20041;-27
2022/08/07 03:43:39;;;;;;;17.58;12.50;;;8.90;7.90;;;;;;5054103;28;20128;-28
2022/08/07 03:46:06;;;;;;;22.52;13.38;;;9.00;21.80;;;;;;5054044;28;20041;-28
2022/08/07 03:48:34;;;;;;;21.23;14.15;;;8.90;19.60;;;;;;5052323;28;20457;-26
2022/08/07 03:51:01;;;;;;;21.60;13.70;;;8.90;11.20;;;;;;5054437;28;20057;-26
2022/08/07 03:53:27;;;;;;;24.08;15.18;;;8.90;24.70;;;;;;5052787;28;20048;-27
2022/08/07 03:55:54;;;;;;;24.42;16.17;;;8.90;44.80;;;;;;5053926;28;20060;-26
2022/08/07 03:58:22;;;;;;;26.67;14.68;;;8.90;58.20;;;;;;5053881;28;20053;-26
2022/08/07 04:00:53;;;;;;;23.75;14.52;;;8.90;78.90;;;;;;5052742;28;20044;-27
2022/08/07 04:03:19;;;;;;;25.30;16.27;;;8.90;72.10;;;;;;5052808;28;20501;-27
2022/08/07 04:05:45;;;;;;;24.45;15.98;;;8.90;93.30;;;;;;5053761;28;20056;-27
2022/08/07 04:08:12;;;;;;;24.02;14.13;;;8.80;60.80;;;;;;5053748;28;20041;-27
2022/08/07 04:10:42;;;;;;;18.25;12.82;;;8.90;64.20;;;;;;5053619;28;20033;-27
2022/08/07 04:13:12;;;;;;;23.08;13.30;;;8.90;77.00;;;;;;5051490;28;20048;-26
2022/08/07 04:15:38;;;;;;;28.52;15.95;;;8.90;71.80;;;;;;5053466;28;20191;-27
2022/08/07 04:18:04;;;;;;;23.23;13.48;;;8.90;74.60;;;;;;5053603;28;20091;-27
2022/08/07 04:20:30;;;;;;;20.60;13.10;;;8.80;73.80;;;;;;5053596;28;20044;-26
2022/08/07 04:22:57;;;;;;;18.83;13.15;;;8.80;70.30;;;;;;5053571;28;20041;-27
2022/08/07 04:25:23;;;;;;;23.23;13.50;;;8.80;53.30;;;;;;5052392;28;20403;-27
2022/08/07 04:27:50;;;;;;;21.25;13.18;;;8.80;68.50;;;;;;5057321;28;20045;-27
2022/08/07 04:30:16;;;;;;;22.88;14.45;;;8.70;95.40;;;;;;5060064;28;20055;-27
2022/08/07 04:32:42;;;;;;;23.58;14.02;;;8.80;99.90;;;;;;5059171;28;20048;-27
2022/08/07 04:35:08;;;;;;;19.63;12.57;;;8.80;99.90;;;;;;5060596;28;20055;-28
2022/08/07 04:37:34;;;;;;;20.58;13.80;;;9.00;99.90;;;;;;5057803;28;20506;-27
2022/08/07 04:40:00;;;;;;;20.00;14.07;;;9.00;99.90;;;;;;5059901;28;20088;-27
2022/08/07 04:42:31;;;;;;;21.30;13.93;;;9.10;99.90;;;;;;5060079;28;20056;-27
2022/08/07 04:45:01;;;;;;;24.25;14.75;;;9.00;99.90;;;;;;5042172;28;20044;-27
2022/08/07 04:47:30;;;;;;;22.70;13.48;;;9.10;99.90;;;;;;5060600;28;20098;-27
2022/08/07 04:50:25;;;;;;;18.20;11.85;;;9.10;99.90;;;;;;5057861;28;20517;-27
2022/08/07 04:53:12;;;;;;;23.77;14.70;;;9.20;99.90;;;;;;5059933;28;20049;-27
2022/08/07 04:55:51;;;;;;;21.58;14.77;;;9.30;99.90;;;;;;5060032;28;20052;-28
2022/08/07 04:58:19;;;;;;;21.38;13.52;;;9.30;99.90;;;;;;5059983;28;20044;-28
2022/08/07 05:00:56;;;;;;;21.70;12.77;;;9.40;99.90;;;;;;5059875;28;20076;-28
2022/08/07 05:03:38;;;;;;;18.17;12.85;;;9.50;99.90;;;;;;5058271;28;20053;-28
2022/08/07 05:06:17;;;;;;;23.42;11.65;;;9.50;99.90;;;;;;5059957;28;20048;-28
2022/08/07 05:09:03;;;;;;;17.20;11.65;;;9.60;99.90;;;;;;5059970;28;20045;-28
2022/08/07 05:11:38;;;;;;;17.83;13.07;;;9.70;99.90;;;;;;5059786;28;20045;-28
2022/08/07 05:14:16;;;;;;;18.50;11.90;;;9.70;99.90;;;;;;5058828;28;20112;-28
2022/08/07 05:16:46;;;;;;;18.83;11.63;;;9.80;99.90;;;;;;5060121;28;20049;-29
2022/08/07 05:19:19;;;;;;;17.13;11.70;;;9.90;99.90;;;;;;5060101;28;20418;-28
2022/08/07 05:21:53;;;;;;;14.55;10.63;;;10.00;99.90;;;;;;5041872;28;20041;-28
2022/08/07 05:24:19;;;;;;;;;;;10.10;99.90;;;;;;5075562;28;20049;-28
2022/08/07 05:26:48;;;;;;;16.40;11.52;;;10.20;99.90;;;;;;5073922;28;20011;-28
2022/08/07 05:29:16;;;;;;;15.10;10.90;;;10.30;99.90;;;;;;5058969;28;20044;-30
2022/08/07 05:31:44;;;;;;;15.95;11.05;;;10.40;99.90;;;;;;5059471;28;20048;-28
2022/08/07 05:34:12;;;;;;;14.00;10.70;;;10.50;99.90;;;;;;5058436;28;20127;-28
2022/08/07 05:36:43;;;;;;;14.95;11.48;;;10.60;99.90;;;;;;5058657;28;20048;-29
2022/08/07 05:39:10;;;;;;;16.10;11.15;;;10.80;99.90;;;;;;5038222;28;20045;-29
2022/08/07 05:41:38;;;;;;;16.88;11.30;;;10.90;99.90;;;;;;5055701;28;20075;-29
2022/08/07 05:44:04;;;;;;;17.38;10.35;;;11.00;99.90;;;;;;5056298;28;20056;-30
2022/08/07 05:46:31;;;;;;;13.90;10.38;;;11.10;99.90;;;;;;5056273;28;20199;-28
2022/08/07 05:48:57;;;;;;;13.98;10.10;;;11.20;99.90;;;;;;5054314;28;20383;-29
2022/08/07 05:51:23;;;;;;;11.73;9.70;;;11.60;99.90;;;;;;5056137;28;20064;-29
2022/08/07 05:53:50;;;;;;;11.45;9.40;;;12.40;99.90;;;;;;5055017;28;20415;-29
2022/08/07 05:56:18;;;;;;;12.98;8.98;;;13.20;1.00;;;;;;5055105;28;20437;-28
2022/08/07 05:58:46;;;;;;;13.18;9.15;;;13.80;1.00;;;;;;5048472;28;20049;-29
2022/08/07 06:01:14;;;;;;;11.57;8.82;;;14.10;99.90;;;;;;5054180;28;20562;-29
2022/08/07 06:03:46;;;;;;;11.05;8.50;;;14.40;99.90;;;;;;5054808;28;20041;-29
2022/08/07 06:06:13;;;;;;;9.57;7.65;;;14.40;1.00;;;;;;5055975;28;20045;-28
2022/08/07 06:08:40;;;;;;;12.55;7.18;;;14.30;99.90;;;;;;5036925;28;20049;-28
2022/08/07 06:11:07;;;;;;;10.23;8.27;;;14.20;1.00;;;;;;5055737;28;20132;-28
2022/08/07 06:13:35;;;;;;;10.00;8.00;;;14.10;1.00;;;;;;5055778;28;20569;-28
2022/08/07 06:16:02;;;;;;;10.65;8.10;;;14.20;98.30;;;;;;5055192;28;20065;-29
2022/08/07 06:18:31;;;;;;;11.10;7.68;;;14.20;99.90;;;;;;5044056;28;20495;-29
2022/08/07 06:20:59;;;;;;;9.68;7.00;;;14.20;99.90;;;;;;5043711;28;20037;-30
2022/08/07 06:23:24;;;;;;;7.72;6.60;;;14.30;99.90;;;;;;5046243;28;20120;-28
2022/08/07 06:25:51;;;;;;;9.50;7.45;;;14.40;99.90;;;;;;5056018;28;20132;-28
2022/08/07 06:28:17;;;;;;;10.18;6.55;;;14.40;20.70;;;;;;5054390;28;20088;-28
2022/08/07 06:30:42;;;;;;;9.00;6.50;;;14.50;1.00;;;;;;5055414;28;20130;-28
2022/08/07 06:33:08;;;;;;;6.80;5.32;;;14.60;1.00;;;;;;5055980;28;20081;-28
2022/08/07 06:35:35;;;;;;;6.93;5.93;;;14.80;1.00;;;;;;5055898;28;20049;-28
2022/08/07 06:38:02;;;;;;;8.68;5.28;;;14.90;1.00;;;;;;5054701;28;20128;-28
2022/08/07 06:40:39;;;;;;;6.90;5.03;;;15.00;99.90;;;;;;5055591;28;20048;-29
2022/08/07 06:43:07;;;;;;;5.85;4.28;;;15.10;1.00;;;;;;5054213;28;20045;-29
2022/08/07 06:45:33;;;;;;;7.30;5.10;;;15.20;1.00;;;;;;5054000;28;20045;-28
2022/08/07 06:48:00;;;;;;;8.93;4.68;;;15.30;1.00;;;;;;5054007;28;20071;-29
2022/08/07 06:50:27;;;;;;;7.50;5.35;;;15.50;1.00;;;;;;5054744;28;20398;-28
2022/08/07 06:52:55;;;;;;;5.57;4.50;;;15.60;99.90;;;;;;5054984;28;20506;-28
2022/08/07 06:55:27;;;;;;;7.95;5.25;;;15.70;99.90;;;;;;5055281;28;20395;-28
2022/08/07 06:57:58;;;;;;;5.70;4.57;;;15.80;99.90;;;;;;5054938;28;20122;-28
2022/08/07 07:00:25;;;;;;;5.60;4.30;;;15.80;99.90;;;;;;5054202;28;20056;-28
2022/08/07 07:02:51;;;;;;;4.80;3.95;;;15.90;99.90;;;;;;5054842;28;20045;-28
2022/08/07 07:05:20;;;;;;;4.57;3.40;;;16.00;99.90;;;;;;5054827;28;20041;-28
2022/08/07 07:07:45;;;;;;;5.57;4.00;;;16.20;96.30;;;;;;5054750;28;20174;-28
2022/08/07 07:10:12;;;;;;;4.18;3.40;;;16.20;76.00;;;;;;5054689;28;20127;-29
2022/08/07 07:12:41;;;;;;;5.32;3.58;;;16.30;1.00;;;;;;5054559;28;20059;-29
2022/08/07 07:15:15;;;;;;;3.72;3.10;;;16.40;1.00;;;;;;5054430;28;20096;-28
2022/08/07 07:18:00;;;;;;;4.25;3.22;;;16.50;1.00;;;;;;5053672;28;20084;-28
2022/08/07 07:20:40;;;;;;;4.80;3.78;;;16.60;1.00;;;;;;5054547;28;20052;-28
2022/08/07 07:23:07;;;;;;;5.75;3.63;;;16.70;1.00;;;;;;5054532;28;20045;-28
2022/08/07 07:25:37;;;;;;;4.15;3.22;;;16.80;1.00;;;;;;5051793;28;20053;-27
2022/08/07 07:28:17;;;;;;;8.82;3.38;;;16.90;1.00;;;;;;5054371;28;20049;-29
2022/08/07 07:30:51;;;;;;;3.83;3.33;;;17.00;1.00;;;;;;5054528;28;20553;-28
2022/08/07 07:33:18;;;;;;;4.00;3.30;;;17.10;1.00;;;;;;5054386;28;20052;-28
2022/08/07 07:35:47;;;;;;;4.20;3.60;;;17.20;1.00;;;;;;5053343;28;20091;-28
2022/08/07 07:38:17;;;;;;;6.30;4.25;;;17.20;99.90;;;;;;5052919;28;20052;-28
2022/08/07 07:40:44;;;;;;;5.65;3.67;;;17.20;99.90;;;;;;5054236;28;20107;-28
2022/08/07 07:43:13;;;;;;;5.07;3.63;;;17.30;99.90;;;;;;5052382;28;20080;-28
2022/08/07 07:45:39;;;;;;;6.32;3.67;;;17.40;99.90;;;;;;5051720;28;20442;-28
2022/08/07 07:48:08;;;;;;;7.43;4.72;;;17.50;99.90;;;;;;5053932;28;20094;-27
2022/08/07 07:50:35;;;;;;;8.10;4.45;;;17.60;99.90;;;;;;5052083;28;20053;-28
2022/08/07 07:53:02;;;;;;;9.30;4.55;;;17.60;87.30;;;;;;5053261;28;20091;-27
2022/08/07 07:55:30;;;;;;;5.95;3.63;;;17.70;99.90;;;;;;5035604;28;20141;-28
2022/08/07 07:57:57;;;;;;;6.88;4.18;;;17.70;20.50;;;;;;5056173;28;20111;-27
2022/08/07 08:00:26;;;;;;;5.18;4.68;;;17.70;26.00;;;;;;5054394;28;20049;-27
2022/08/07 08:02:56;;;;;;;7.65;4.68;;;17.70;31.10;;;;;;5052920;28;20041;-28
2022/08/07 08:05:23;;;;;;;7.70;5.47;;;17.80;1.00;;;;;;5054605;28;20052;-27
2022/08/07 08:07:49;;;;;;;7.28;4.43;;;17.90;99.90;;;;;;5052942;28;20052;-28
2022/08/07 08:10:18;;;;;;;7.30;4.55;;;18.00;99.90;;;;;;5053391;28;20044;-28
2022/08/07 08:12:45;;;;;;;4.15;3.70;;;18.10;1.00;;;;;;5052372;28;20514;-28
2022/08/07 08:15:11;;;;;;;7.20;4.57;;;18.20;1.00;;;;;;5053212;28;20134;-28
2022/08/07 08:17:38;;;;;;;9.57;4.90;;;18.30;1.00;;;;;;5053581;28;20087;-28
2022/08/07 08:20:09;;;;;;;6.45;4.45;;;18.30;1.00;;;;;;5046482;28;20055;-27
2022/08/07 08:28:19;;;;;;;7.93;4.45;;;18.40;99.90;;;;;;5052998;28;20507;-27
2022/08/07 08:30:46;;;;;;;6.20;4.10;;;18.60;1.00;;;;;;5053192;28;20088;-29
2022/08/07 08:33:17;;;;;;;5.68;3.75;;;18.70;1.00;;;;;;5051292;28;20146;-27
2022/08/07 08:35:47;;;;;;;5.18;3.97;;;18.80;99.90;;;;;;5051958;28;20258;-28
2022/08/07 08:38:16;;;;;;;4.50;3.55;;;19.00;99.90;;;;;;5042603;28;20495;-29
2022/08/07 08:40:56;;;;;;;7.22;4.18;;;19.00;99.90;;;;;;5053398;28;20037;-28
2022/08/07 08:43:49;;;;;;;3.97;3.47;;;19.10;99.90;;;;;;5033382;28;20053;-28
2022/08/07 08:46:22;;;;;;;5.35;3.55;;;19.30;99.90;;;;;;5053404;28;20053;-28
2022/08/07 08:49:11;;;;;;;7.38;4.00;;;19.60;99.90;;;;;;5053581;28;20391;-28
2022/08/07 08:51:46;;;;;;;5.40;3.40;;;19.60;99.90;;;;;;5052607;28;20056;-28
2022/08/07 08:54:22;;;;;;;4.55;3.65;;;19.30;97.70;;;;;;5049781;28;20511;-28
2022/08/07 08:56:51;;;;;;;6.70;3.90;;;19.20;61.00;;;;;;5051597;28;20053;-28
2022/08/07 08:59:45;;;;;;;7.00;3.67;;;19.10;99.90;;;;;;5033319;28;20048;-28
2022/08/07 09:02:33;;;;;;;;;;;18.90;83.50;;;;;;5037451;28;20049;-27
2022/08/07 09:05:30;;;;;;;5.85;4.18;;;18.70;99.90;;;;;;5049579;28;19927;-28
2022/08/07 09:08:18;;;;;;;6.28;3.33;;;18.90;99.90;;;;;;5050695;28;20438;-28
2022/08/07 09:10:56;;;;;;;6.72;3.67;;;20.30;49.30;;;;;;5053029;28;20049;-28
2022/08/07 09:13:49;;;;;;;5.47;3.35;;;21.20;99.90;;;;;;5053665;28;20056;-29
2022/08/07 09:17:06;;;;;;;7.72;3.17;;;20.80;99.90;;;;;;5056427;28;20091;-28
2022/08/07 09:20:00;;;;;;;3.20;2.90;;;20.00;99.90;;;;;;5055884;28;20076;-28
2022/08/07 09:22:50;;;;;;;7.85;3.90;;;19.40;99.90;;;;;;5056564;28;20056;-28
2022/08/07 09:25:24;;;;;;;4.50;3.00;;;19.90;1.00;;;;;;5049518;28;20045;-28
2022/08/07 09:28:16;;;;;;;5.95;2.92;;;21.40;99.90;;;;;;5037984;28;20052;-28
2022/08/07 09:31:02;;;;;;;4.80;3.20;;;22.10;1.00;;;;;;5056443;28;20391;-28
2022/08/07 09:33:36;;;;;;;4.55;3.15;;;22.40;1.00;;;;;;5055710;28;20049;-28
2022/08/07 09:36:13;;;;;;;4.80;2.60;;;22.60;90.00;;;;;;5036619;28;20495;-28
2022/08/07 09:38:53;;;;;;;7.05;2.60;;;22.60;99.90;;;;;;5037431;28;20085;-28
2022/08/07 09:41:29;;;;;;;4.78;3.35;;;22.80;60.70;;;;;;5036552;28;20049;-28
2022/08/07 09:44:38;;;;;;;5.60;2.80;;;23.20;51.10;;;;;;5036496;28;20475;-28
2022/08/07 09:47:25;;;;;;;7.07;2.67;;;24.20;1.00;;;;;;5026852;28;20061;-28
2022/08/07 09:49:50;;;;;;;4.80;2.60;;;24.20;79.30;;;;;;5040690;28;20049;-28
2022/08/07 09:52:28;;;;;;;3.47;2.45;;;22.90;63.60;;;;;;5054848;28;20045;-28
2022/08/07 09:55:34;;;;;;;2.97;2.50;;;22.50;92.20;;;;;;5054324;28;20127;-28
2022/08/07 09:58:37;;;;;;;5.43;2.65;;;21.60;99.90;;;;;;5046645;28;20052;-28
2022/08/07 10:01:21;;;;;;;;;;;21.60;99.90;;;;;;5056129;28;20476;-28
2022/08/07 10:03:50;;;;;;;3.33;2.53;;;21.40;99.90;;;;;;5055991;28;19990;-28
2022/08/07 10:06:43;;;;;;;4.38;2.80;;;20.80;99.90;;;;;;5054958;28;20045;-29
2022/08/07 10:09:36;;;;;;;4.03;3.20;;;20.40;99.90;;;;;;5055934;28;20053;-28
2022/08/07 10:12:07;;;;;;;6.05;2.53;;;20.20;99.90;;;;;;5056388;28;20037;-28
2022/08/07 10:14:39;;;;;;;2.58;2.20;;;20.10;99.90;;;;;;5055389;28;20423;-28
2022/08/07 10:17:10;;;;;;;3.75;2.53;;;21.00;99.90;;;;;;5053692;28;20107;-28
2022/08/07 10:20:18;;;;;;;3.22;2.30;;;22.20;73.20;;;;;;5055710;28;20430;-28
2022/08/07 10:22:49;;;;;;;3.72;2.28;;;22.40;19.20;;;;;;5055673;28;20060;-30
2022/08/07 10:25:41;;;;;;;3.13;2.15;;;21.30;21.90;;;;;;5054598;28;20518;-27
2022/08/07 10:28:34;;;;;;;5.00;2.13;;;20.60;52.80;;;;;;5054653;28;20076;-28
2022/08/07 10:31:06;;;;;;;4.10;2.25;;;20.20;53.90;;;;;;5054385;28;20041;-28
2022/08/07 10:34:24;;;;;;;4.03;2.27;;;20.10;99.90;;;;;;5054430;28;20055;-28
2022/08/07 10:37:01;;;;;;;5.72;2.30;;;20.70;98.90;;;;;;5052212;28;20317;-28
2022/08/07 10:39:42;;;;;;;3.83;2.20;;;22.30;22.40;;;;;;5055259;28;20049;-29
2022/08/07 10:42:28;;;;;;;3.60;2.80;;;23.40;76.50;;;;;;5053734;28;20450;-28
2022/08/07 10:45:37;;;;;;;3.80;2.63;;;23.90;72.60;;;;;;5055181;28;20132;-28
2022/08/07 10:48:33;;;;;;;2.38;1.70;;;24.50;99.90;;;;;;5029202;28;21086;-28
2022/08/07 10:51:00;;;;;;;3.42;2.20;;;25.00;99.90;;;;;;5011663;28;20054;-28
2022/08/07 10:53:42;;;;;;;3.95;2.40;;;24.30;99.90;;;;;;5036264;28;20158;-28
2022/08/07 10:56:31;;;;;;;3.10;1.98;;;23.30;99.90;;;;;;5047142;28;20120;-28
2022/08/07 10:59:19;;;;;;;3.17;1.83;;;22.10;99.90;;;;;;5051995;28;20120;-28
2022/08/07 11:01:55;;;;;;;2.35;2.15;;;21.30;99.90;;;;;;5048640;28;20045;-28
2022/08/07 11:04:28;;;;;;;4.18;2.40;;;20.90;99.90;;;;;;5054805;28;20047;-28
2022/08/07 11:07:12;;;;;;;;;;;20.70;99.90;;;;;;5046293;28;20517;-28
2022/08/07 11:09:46;;;;;;;3.35;2.03;;;20.40;99.90;;;;;;5054699;28;19932;-28
2022/08/07 11:12:36;;;;;;;4.60;2.33;;;20.20;99.90;;;;;;5053230;28;20391;-28
2022/08/07 11:15:13;;;;;;;2.95;2.08;;;20.00;99.90;;;;;;5044501;28;20059;-28
2022/08/07 11:18:01;;;;;;;5.00;2.28;;;19.90;99.90;;;;;;5055226;28;20115;-28
2022/08/07 11:20:47;;;;;;;3.17;2.28;;;20.30;99.90;;;;;;5033967;28;20484;-28
2022/08/07 11:23:28;;;;;;;3.30;2.30;;;20.30;99.90;;;;;;5034640;28;20049;-28
2022/08/07 11:26:04;;;;;;;2.70;1.90;;;20.90;99.90;;;;;;5036520;28;20388;-27
2022/08/07 11:28:40;;;;;;;4.18;1.85;;;21.90;39.70;;;;;;5054460;28;20080;-28
2022/08/07 11:31:16;;;;;;;3.15;2.10;;;22.90;79.80;;;;;;5054794;28;20045;-28
2022/08/07 11:33:48;;;;;;;2.28;1.38;;;23.60;99.90;;;;;;5055192;28;20049;-28
2022/08/07 11:36:28;;;;;;;1.60;1.30;;;23.90;99.90;;;;;;5052413;28;20124;-29
2022/08/07 11:39:32;;;;;;;3.60;1.80;;;24.30;99.90;;;;;;5034905;28;20067;-29
2022/08/07 11:42:37;;;;;;;3.40;1.95;;;25.20;99.90;;;;;;4992024;28;20042;-28
2022/08/07 11:45:14;;;;;;;4.30;1.58;;;25.10;99.90;;;;;;5034264;28;20499;-28
2022/08/07 11:47:52;;;;;;;1.77;1.27;;;25.00;99.90;;;;;;5034967;28;20042;-28
2022/08/07 11:50:54;;;;;;;2.47;1.20;;;24.70;99.90;;;;;;5042115;28;20494;-28
2022/08/07 11:53:44;;;;;;;1.55;1.10;;;24.30;99.90;;;;;;5052258;28;20145;-28
2022/08/07 11:56:36;;;;;;;2.90;1.50;;;23.70;99.90;;;;;;5044438;28;20125;-28
2022/08/07 11:59:40;;;;;;;3.20;1.70;;;23.20;99.90;;;;;;5036549;28;20521;-28
2022/08/07 12:02:40;;;;;;;4.72;2.10;;;22.30;99.90;;;;;;5044432;28;20124;-28
2022/08/07 12:05:24;;;;;;;2.45;1.55;;;21.80;99.90;;;;;;5054607;28;20132;-28
2022/08/07 12:08:04;;;;;;;3.45;2.15;;;21.40;99.90;;;;;;5053809;28;20045;-28
2022/08/07 12:10:45;;;;;;;4.85;1.92;;;21.10;99.90;;;;;;5053059;28;20103;-28
2022/08/07 12:13:23;;;;;;;4.95;2.13;;;20.80;1.00;;;;;;5050874;28;20041;-28
2022/08/07 12:15:57;;;;;;;3.08;2.30;;;20.60;1.00;;;;;;5053284;28;20103;-28
2022/08/07 12:18:37;;;;;;;3.72;2.75;;;20.70;1.00;;;;;;5053918;28;20052;-28
2022/08/07 12:21:24;;;;;;;5.32;2.63;;;20.70;1.00;;;;;;5049157;28;20055;-28
2022/08/07 12:23:58;;;;;;;3.47;2.17;;;20.80;1.00;;;;;;5052410;28;20051;-29
2022/08/07 12:26:51;;;;;;;2.70;2.35;;;20.80;1.00;;;;;;5053487;28;20087;-28
2022/08/07 12:29:28;;;;;;;4.18;2.65;;;20.90;1.00;;;;;;5052761;28;20044;-28
2022/08/07 12:32:25;;;;;;;7.50;3.22;;;20.90;99.90;;;;;;5048122;28;20046;-28
2022/08/07 12:34:53;;;;;;;3.80;2.33;;;21.20;1.00;;;;;;5044739;28;20128;-27
2022/08/07 12:37:20;;;;;;;2.38;1.70;;;21.80;99.90;;;;;;5034704;28;20045;-28
2022/08/07 12:39:49;;;;;;;3.78;2.22;;;22.60;99.90;;;;;;5033511;28;20068;-28
2022/08/07 12:42:21;;;;;;;2.85;1.85;;;23.50;99.90;;;;;;5048902;28;20077;-28
2022/08/07 12:44:49;;;;;;;2.80;1.95;;;24.20;99.90;;;;;;5043915;28;20120;-28
2022/08/07 12:47:39;;;;;;;2.47;1.52;;;24.70;99.90;;;;;;5053342;28;20502;-28
2022/08/07 12:50:24;;;;;;;3.47;1.90;;;23.80;99.90;;;;;;5056850;28;20087;-28
2022/08/07 12:53:17;;;;;;;5.07;1.60;;;24.10;99.90;;;;;;5057698;28;20068;-28
2022/08/07 12:56:11;;;;;;;3.28;1.60;;;24.20;99.90;;;;;;5055399;28;20384;-28
2022/08/07 12:58:41;;;;;;;3.05;1.70;;;23.70;99.90;;;;;;5057298;28;20045;-28
2022/08/07 13:01:24;;;;;;;3.72;1.75;;;23.30;99.90;;;;;;5056269;28;20128;-28
2022/08/07 13:03:59;;;;;;;4.15;1.70;;;22.90;99.90;;;;;;5057474;28;20049;-27
2022/08/07 13:06:28;;;;;;;3.47;1.98;;;22.70;99.90;;;;;;5055058;28;20052;-28
2022/08/07 13:09:04;;;;;;;3.72;1.83;;;22.30;99.90;;;;;;5054871;28;20056;-28
2022/08/07 13:11:38;;;;;;;4.38;1.60;;;22.10;99.90;;;;;;5057774;28;20052;-28
2022/08/07 13:14:23;;;;;;;7.65;1.73;;;21.90;99.90;;;;;;5057024;28;20118;-28
2022/08/07 13:17:10;;;;;;;2.78;1.60;;;22.50;99.90;;;;;;5056705;28;20049;-28
2022/08/07 13:20:13;;;;;;;5.47;2.03;;;23.30;99.90;;;;;;5055932;28;20094;-27
2022/08/07 13:22:54;;;;;;;5.38;2.20;;;23.40;99.90;;;;;;5056129;28;20045;-28